Japan Airlines Virtual Airport Information Service

Cincinnati Northern Kentucky International Airport

ICAO: KCVG Country: United States
Latitude: 39.0488 Longitude: -84.6678
Latest Arrival : DAL2611 (KATL-KCVG) Latest Departure : DAL228 (KCVG-LFPG)


WX CaptureLIVE
Data provided by noaa.gov | Fetched at 07:13:02

METAR : KCVG 090652Z VRB03KT 10SM FEW250 25/21 A2992 RMK AO2 SLP118 T02500206

TAF : KCVG 090539Z 0906/1012 00000KT P6SM FEW150 FM091000 00000KT 5SM BR FEW150 FM091300 VRB02KT P6SM FEW050 FM091700 18005KT P6SM SCT050 FM092000 21006KT P6SM VCSH SCT050 FM092300 23004KT P6SM FEW060 FM100100 VRB02KT P6SM FEW150


Runway Data for KCVG
Data provided by openaviationdata.com

Runway ID Mag Var Hdg Length Elevation Surface ILS Freq ILS Id ILS Slope
9 -4 94° 11984 ft 896 ft Asphalt 111.9 IURN 3
18L -4 184° 10010 ft 896 ft Concrete 110.15 ICIZ 3
18R -4 184° 11010 ft 896 ft Asphalt 111.55 ISIC 3
27 -4 274° 11984 ft 896 ft Asphalt 108.7 IJDP 3
36L -4 11010 ft 896 ft Asphalt 109.9 ICVG 3
36R -4 10010 ft 896 ft Concrete 110.35 IEEI 3

Cincinnati Northern Kentucky International Airport, United States
Use only for reference purposes



Not for navigational purposes.